createdAt,value
2023-08-21T00:01:27.078Z,14.57
2023-08-21T00:03:53.711Z,16.17
2023-08-21T00:06:20.334Z,16.38
2023-08-21T00:08:46.978Z,17.48
2023-08-21T00:11:13.551Z,16.58
2023-08-21T00:13:40.250Z,17.02
2023-08-21T00:16:07.315Z,15.10
2023-08-21T00:18:33.938Z,15.45
2023-08-21T00:21:00.622Z,16.98
2023-08-21T00:23:27.891Z,13.80
2023-08-21T00:25:54.498Z,14.63
2023-08-21T00:28:21.069Z,14.27
2023-08-21T00:30:47.661Z,15.30
2023-08-21T00:33:14.395Z,13.88
2023-08-21T00:35:41.065Z,15.07
2023-08-21T00:38:07.644Z,14.82
2023-08-21T00:40:34.252Z,13.75
2023-08-21T00:43:00.934Z,15.32
2023-08-21T00:45:27.768Z,13.88
2023-08-21T00:47:54.408Z,14.35
2023-08-21T00:50:21.070Z,14.43
2023-08-21T00:52:48.188Z,15.63
2023-08-21T00:55:16.142Z,13.88
2023-08-21T00:57:42.795Z,15.60
2023-08-21T01:00:12.539Z,15.35
2023-08-21T01:02:40.466Z,15.40
2023-08-21T01:05:09.376Z,15.95
2023-08-21T01:07:39.759Z,15.13
2023-08-21T01:10:11.129Z,18.10
2023-08-21T01:12:50.660Z,14.80
2023-08-21T01:15:17.234Z,17.30
2023-08-21T01:17:44.675Z,14.50
2023-08-21T01:20:11.540Z,16.80
2023-08-21T01:22:39.405Z,15.57
2023-08-21T01:25:06.859Z,16.08
2023-08-21T01:27:34.610Z,16.10
2023-08-21T01:30:02.070Z,14.40
2023-08-21T01:32:33.423Z,13.80
2023-08-21T01:35:00.387Z,14.93
2023-08-21T01:37:27.449Z,14.35
2023-08-21T01:39:54.051Z,12.70
2023-08-21T01:42:20.676Z,14.65
2023-08-21T01:44:47.401Z,14.50
2023-08-21T01:47:14.060Z,16.08
2023-08-21T01:49:40.699Z,17.88
2023-08-21T01:52:07.544Z,13.57
2023-08-21T01:54:34.132Z,14.27
2023-08-21T01:57:00.749Z,14.02
2023-08-21T01:59:27.337Z,14.13
2023-08-21T02:01:55.115Z,14.90
2023-08-21T02:04:21.694Z,19.73
2023-08-21T02:06:48.372Z,14.10
2023-08-21T02:09:14.963Z,14.10
2023-08-21T02:11:41.566Z,14.60
2023-08-21T02:14:08.739Z,14.77
2023-08-21T02:16:35.378Z,15.30
2023-08-21T02:19:02.045Z,15.27
2023-08-21T02:21:28.645Z,14.02
2023-08-21T02:23:55.299Z,15.77
2023-08-21T02:26:21.906Z,14.90
2023-08-21T02:28:48.506Z,15.02
2023-08-21T02:31:15.215Z,14.95
2023-08-21T02:33:41.816Z,15.57
2023-08-21T02:36:08.742Z,15.88
2023-08-21T02:38:35.333Z,14.18
2023-08-21T02:41:02.020Z,14.00
2023-08-21T02:43:28.644Z,16.42
2023-08-21T02:45:55.269Z,14.38
2023-08-21T02:48:21.945Z,15.00
2023-08-21T02:50:49.599Z,14.95
2023-08-21T02:53:16.291Z,14.75
2023-08-21T02:55:43.319Z,14.82
2023-08-21T02:58:10.313Z,15.15
2023-08-21T03:00:37.001Z,15.90
2023-08-21T03:03:03.922Z,14.88
2023-08-21T03:05:30.614Z,14.82
2023-08-21T03:07:57.279Z,15.85
2023-08-21T03:10:28.083Z,14.98
2023-08-21T03:12:55.801Z,14.63
2023-08-21T03:15:22.420Z,14.27
2023-08-21T03:17:49.158Z,14.82
2023-08-21T03:20:15.848Z,14.13
2023-08-21T03:22:42.467Z,13.90
2023-08-21T03:25:09.552Z,15.70
2023-08-21T03:27:40.405Z,13.30
2023-08-21T03:30:10.075Z,15.05
2023-08-21T03:32:37.552Z,12.90
2023-08-21T03:35:04.632Z,12.90
2023-08-21T03:37:31.236Z,13.05
2023-08-21T03:39:57.878Z,13.15
2023-08-21T03:42:24.629Z,17.30
2023-08-21T03:44:51.587Z,13.43
2023-08-21T03:47:18.422Z,12.75
2023-08-21T03:49:45.072Z,14.68
2023-08-21T03:52:11.737Z,14.05
2023-08-21T03:54:38.391Z,12.77
2023-08-21T03:57:05.202Z,13.65
2023-08-21T03:59:31.806Z,15.70
2023-08-21T04:01:58.448Z,14.23
2023-08-21T04:04:25.317Z,15.52
2023-08-21T04:06:51.950Z,12.95
2023-08-21T04:09:18.692Z,13.18
2023-08-21T04:11:45.347Z,12.65
2023-08-21T04:14:12.292Z,11.77
2023-08-21T04:16:38.988Z,13.35
2023-08-21T04:19:06.610Z,12.60
2023-08-21T04:21:33.403Z,13.50
2023-08-21T04:24:00.626Z,13.25
2023-08-21T04:26:27.341Z,11.65
2023-08-21T04:28:54.057Z,11.88
2023-08-21T04:31:21.119Z,11.80
2023-08-21T04:33:47.815Z,10.02
2023-08-21T04:36:17.943Z,9.88
2023-08-21T04:38:45.119Z,10.67
2023-08-21T04:41:12.021Z,10.30
2023-08-21T04:43:39.104Z,10.82
2023-08-21T04:46:06.929Z,9.65
2023-08-21T04:48:33.624Z,8.88
2023-08-21T04:51:00.326Z,10.55
2023-08-21T04:53:27.011Z,9.07
2023-08-21T04:55:53.777Z,9.18
2023-08-21T04:58:20.660Z,8.55
2023-08-21T05:00:47.471Z,7.85
2023-08-21T05:03:14.245Z,8.10
2023-08-21T05:05:41.050Z,8.38
2023-08-21T05:08:07.890Z,8.18
2023-08-21T05:10:34.843Z,8.40
2023-08-21T05:13:01.663Z,7.55
2023-08-21T05:15:28.470Z,6.85
2023-08-21T05:17:55.319Z,7.50
2023-08-21T05:20:22.137Z,7.30
2023-08-21T05:22:48.920Z,7.97
2023-08-21T05:25:16.531Z,6.97
2023-08-21T05:27:43.351Z,6.57
2023-08-21T05:30:12.164Z,6.70
2023-08-21T05:32:39.212Z,6.22
2023-08-21T05:35:06.206Z,8.90
2023-08-21T05:37:32.809Z,7.25
2023-08-21T05:39:59.496Z,6.85
2023-08-21T05:42:26.099Z,6.35
2023-08-21T05:44:52.849Z,6.07
2023-08-21T05:47:19.491Z,6.93
2023-08-21T05:49:46.238Z,6.82
2023-08-21T05:52:12.891Z,6.97
2023-08-21T05:54:39.612Z,6.35
2023-08-21T05:57:06.348Z,6.90
2023-08-21T05:59:33.641Z,7.03
2023-08-21T06:02:00.341Z,7.40
2023-08-21T06:04:31.077Z,5.97
2023-08-21T06:06:57.749Z,6.57
2023-08-21T06:09:24.450Z,5.53
2023-08-21T06:11:51.172Z,8.27
2023-08-21T06:14:17.808Z,6.05
2023-08-21T06:16:46.569Z,5.55
2023-08-21T06:19:16.648Z,5.70
2023-08-21T06:21:43.275Z,6.10
2023-08-21T06:24:09.844Z,6.07
2023-08-21T06:26:36.462Z,5.93
2023-08-21T06:29:03.113Z,6.80
2023-08-21T06:31:29.784Z,6.30
2023-08-21T06:33:56.398Z,6.32
2023-08-21T06:36:22.980Z,5.30
2023-08-21T06:38:49.901Z,7.80
2023-08-21T06:41:16.466Z,6.60
2023-08-21T06:43:45.213Z,6.72
2023-08-21T06:46:12.394Z,6.90
2023-08-21T06:48:40.183Z,7.70
2023-08-21T06:51:06.975Z,6.45
2023-08-21T06:53:33.674Z,6.68
2023-08-21T06:56:00.269Z,6.63
2023-08-21T06:58:30.331Z,7.10
2023-08-21T07:03:26.386Z,6.90
2023-08-21T07:05:57.675Z,8.63
2023-08-21T07:08:24.683Z,8.85
2023-08-21T07:10:51.694Z,10.65
2023-08-21T07:13:18.403Z,9.50
2023-08-21T07:15:45.131Z,12.63
2023-08-21T07:18:11.838Z,10.63
2023-08-21T07:20:38.721Z,13.95
2023-08-21T07:23:05.429Z,12.00
2023-08-21T07:25:32.188Z,12.63
2023-08-21T07:28:00.161Z,10.63
2023-08-21T07:30:26.768Z,11.07
2023-08-21T07:32:54.272Z,10.55
2023-08-21T07:35:22.032Z,10.23
2023-08-21T07:37:48.853Z,10.45
2023-08-21T07:40:15.484Z,16.45
2023-08-21T07:42:42.096Z,16.05
2023-08-21T07:45:08.966Z,12.50
2023-08-21T07:47:37.354Z,14.50
2023-08-21T07:50:04.634Z,11.00
2023-08-21T07:52:31.218Z,10.65
2023-08-21T07:54:57.972Z,10.88
2023-08-21T07:57:24.586Z,11.60
2023-08-21T07:59:52.206Z,16.70
2023-08-21T08:02:20.247Z,11.63
2023-08-21T08:04:47.435Z,11.55
2023-08-21T08:07:14.506Z,16.05
2023-08-21T08:09:41.220Z,11.23
2023-08-21T08:12:09.563Z,12.35
2023-08-21T08:14:36.575Z,13.68
2023-08-21T08:17:03.263Z,11.25
2023-08-21T08:19:29.890Z,12.38
2023-08-21T08:21:56.472Z,11.65
2023-08-21T08:24:23.130Z,13.60
2023-08-21T08:26:50.074Z,12.85
2023-08-21T08:29:16.720Z,14.85
2023-08-21T08:31:43.408Z,11.50
2023-08-21T08:34:10.115Z,12.00
2023-08-21T08:36:36.904Z,12.90
2023-08-21T08:39:03.948Z,14.30
2023-08-21T08:41:36.303Z,11.20
2023-08-21T08:44:05.905Z,10.90
2023-08-21T08:46:34.906Z,11.60
2023-08-21T08:49:05.499Z,11.18
2023-08-21T08:51:33.088Z,10.65
2023-08-21T08:54:03.408Z,11.57
2023-08-21T08:56:32.851Z,12.32
2023-08-21T08:58:59.846Z,12.20
2023-08-21T09:01:27.336Z,10.27
2023-08-21T09:03:54.323Z,11.02
2023-08-21T09:06:21.327Z,12.27
2023-08-21T09:08:58.040Z,10.40
2023-08-21T09:11:25.083Z,11.77
2023-08-21T09:13:52.590Z,11.77
2023-08-21T09:16:24.728Z,9.75
2023-08-21T09:18:52.291Z,8.63
2023-08-21T09:21:20.084Z,9.52
2023-08-21T09:23:54.008Z,7.65
2023-08-21T09:26:24.580Z,7.60
2023-08-21T09:28:52.245Z,8.52
2023-08-21T09:31:25.808Z,9.02
2023-08-21T09:34:00.102Z,8.25
2023-08-21T09:36:27.119Z,9.48
2023-08-21T09:38:54.152Z,6.22
2023-08-21T09:41:21.950Z,6.35
2023-08-21T09:43:49.091Z,6.93
2023-08-21T09:46:18.013Z,8.93
2023-08-21T09:48:48.728Z,8.52
2023-08-21T09:51:15.781Z,6.35
2023-08-21T09:53:44.717Z,6.20
2023-08-21T09:56:14.646Z,8.90
2023-08-21T09:58:41.898Z,6.15
2023-08-21T10:01:15.845Z,7.72
2023-08-21T10:03:43.667Z,6.78
2023-08-21T10:06:17.852Z,6.32
2023-08-21T10:08:49.508Z,6.93
2023-08-21T10:11:22.510Z,6.68
2023-08-21T10:13:51.597Z,6.32
2023-08-21T10:16:18.765Z,7.85
2023-08-21T10:18:49.888Z,11.38
2023-08-21T10:21:18.374Z,7.22
2023-08-21T10:23:52.909Z,8.13
2023-08-21T10:26:23.664Z,8.32
2023-08-21T10:28:55.086Z,7.65
2023-08-21T10:31:32.795Z,6.45
2023-08-21T10:34:04.307Z,6.57
2023-08-21T10:36:40.434Z,6.20
2023-08-21T10:39:16.464Z,6.22
2023-08-21T10:41:54.154Z,6.53
2023-08-21T10:44:44.457Z,7.20
2023-08-21T10:47:16.468Z,6.40
2023-08-21T10:49:45.201Z,7.70
2023-08-21T10:52:12.533Z,6.70
2023-08-21T10:54:49.388Z,7.25
2023-08-21T10:57:16.440Z,6.15
2023-08-21T10:59:52.089Z,6.95
2023-08-21T11:02:19.325Z,6.90
2023-08-21T11:04:46.095Z,7.38
2023-08-21T11:07:14.212Z,6.07
2023-08-21T11:09:40.921Z,6.75
2023-08-21T11:12:11.403Z,6.47
2023-08-21T11:14:41.052Z,6.15
2023-08-21T11:17:11.578Z,6.05
2023-08-21T11:19:38.845Z,5.35
2023-08-21T11:22:07.277Z,5.35
2023-08-21T11:24:44.571Z,5.57
2023-08-21T11:27:13.469Z,4.75
2023-08-21T11:29:42.102Z,7.38
2023-08-21T11:32:09.742Z,4.68
2023-08-21T11:34:39.364Z,5.40
2023-08-21T11:37:07.419Z,5.35
2023-08-21T11:39:42.619Z,6.13
2023-08-21T11:42:13.895Z,5.57
2023-08-21T11:44:48.406Z,4.72
2023-08-21T11:47:15.885Z,4.35
2023-08-21T11:49:43.879Z,4.47
2023-08-21T11:52:13.656Z,6.00
2023-08-21T11:54:41.902Z,5.63
2023-08-21T11:57:18.514Z,5.85
2023-08-21T11:59:51.186Z,4.38
2023-08-21T12:02:27.876Z,4.88
2023-08-21T12:04:55.387Z,5.20
2023-08-21T12:07:22.363Z,4.43
2023-08-21T12:09:51.634Z,4.13
2023-08-21T12:12:18.451Z,4.20
2023-08-21T12:14:45.375Z,4.00
2023-08-21T12:17:12.229Z,4.38
2023-08-21T12:19:39.239Z,4.70
2023-08-21T12:22:09.864Z,4.03
2023-08-21T12:24:36.905Z,5.60
2023-08-21T12:27:04.140Z,4.65
2023-08-21T12:29:30.819Z,4.28
2023-08-21T12:31:57.620Z,4.90
2023-08-21T12:34:30.296Z,4.78
2023-08-21T12:36:57.980Z,5.07
2023-08-21T12:39:25.058Z,4.72
2023-08-21T12:41:54.731Z,4.57
2023-08-21T12:44:21.481Z,4.40
2023-08-21T12:46:48.148Z,4.32
2023-08-21T12:49:14.891Z,5.57
2023-08-21T12:51:41.735Z,4.63
2023-08-21T12:54:10.642Z,4.70
2023-08-21T12:56:37.407Z,4.75
2023-08-21T12:59:04.627Z,6.07
2023-08-21T13:01:35.689Z,4.45
2023-08-21T13:04:03.217Z,4.22
2023-08-21T13:06:30.135Z,6.15
2023-08-21T13:08:58.924Z,4.53
2023-08-21T13:11:30.886Z,5.00
2023-08-21T13:13:57.917Z,5.25
2023-08-21T13:16:24.624Z,5.07
2023-08-21T13:18:51.325Z,4.93
2023-08-21T13:21:20.203Z,4.82
2023-08-21T13:23:47.610Z,5.15
2023-08-21T13:26:14.772Z,4.82
2023-08-21T13:28:44.995Z,5.10
2023-08-21T13:31:12.849Z,5.70
2023-08-21T13:33:52.678Z,4.53
2023-08-21T13:36:25.135Z,5.25
2023-08-21T13:38:52.853Z,6.90
2023-08-21T13:41:19.916Z,4.35
2023-08-21T13:43:46.802Z,5.15
2023-08-21T13:46:13.951Z,5.05
2023-08-21T13:48:42.298Z,4.78
2023-08-21T13:51:09.482Z,5.15
2023-08-21T13:53:36.210Z,5.93
2023-08-21T13:56:02.900Z,5.22
2023-08-21T13:58:33.296Z,5.03
2023-08-21T14:01:01.256Z,5.63
2023-08-21T14:03:28.294Z,4.85
2023-08-21T14:05:59.082Z,6.70
2023-08-21T14:08:27.942Z,4.30
2023-08-21T14:10:58.152Z,4.53
2023-08-21T14:13:30.965Z,4.53
2023-08-21T14:15:58.006Z,5.53
2023-08-21T14:18:24.886Z,4.03
2023-08-21T14:20:51.695Z,4.47
2023-08-21T14:23:18.850Z,4.00
2023-08-21T14:25:45.804Z,4.32
2023-08-21T14:28:13.197Z,10.00
2023-08-21T14:30:39.984Z,4.22
2023-08-21T14:33:06.941Z,4.30
2023-08-21T14:35:33.840Z,4.18
2023-08-21T14:38:00.565Z,4.35
2023-08-21T14:40:27.628Z,3.83
2023-08-21T14:42:54.771Z,4.22
2023-08-21T14:45:21.691Z,4.22
2023-08-21T14:47:48.573Z,4.28
2023-08-21T14:50:18.250Z,3.60
2023-08-21T14:52:45.725Z,4.73
2023-08-21T14:55:13.610Z,5.40
2023-08-21T14:57:41.927Z,5.30
2023-08-21T15:00:11.369Z,4.78
2023-08-21T15:02:40.752Z,4.72
2023-08-21T15:05:08.463Z,4.73
2023-08-21T15:07:35.396Z,5.40
2023-08-21T15:10:02.423Z,5.53
2023-08-21T15:12:29.259Z,5.88
2023-08-21T15:14:56.521Z,4.32
2023-08-21T15:17:23.452Z,5.80
2023-08-21T15:19:50.851Z,8.73
2023-08-21T15:22:17.702Z,5.05
2023-08-21T15:24:47.673Z,7.70
2023-08-21T15:27:15.429Z,6.55
2023-08-21T15:29:42.171Z,9.20
2023-08-21T15:32:09.074Z,79.13
2023-08-21T15:34:35.749Z,7.32
2023-08-21T15:37:02.735Z,6.53
2023-08-21T15:39:29.456Z,4.93
2023-08-21T15:41:57.492Z,4.78
2023-08-21T15:44:24.182Z,4.10
2023-08-21T15:46:55.237Z,4.32
2023-08-21T15:49:28.222Z,4.40
2023-08-21T15:51:54.772Z,3.55
2023-08-21T15:54:21.499Z,5.40
2023-08-21T15:56:48.688Z,3.60
2023-08-21T15:59:15.381Z,6.43
2023-08-21T16:01:42.241Z,3.95
2023-08-21T16:04:08.937Z,3.63
2023-08-21T16:06:35.584Z,5.15
2023-08-21T16:09:02.223Z,4.25
2023-08-21T16:11:28.862Z,4.50
2023-08-21T16:13:59.573Z,5.78
2023-08-21T16:16:26.628Z,4.70
2023-08-21T16:18:53.245Z,3.95
2023-08-21T16:21:19.910Z,3.78
2023-08-21T16:23:46.518Z,5.18
2023-08-21T16:26:13.707Z,3.83
2023-08-21T16:28:40.565Z,4.13
2023-08-21T16:31:09.184Z,7.07
2023-08-21T16:33:37.919Z,4.45
2023-08-21T16:36:04.808Z,4.53
2023-08-21T16:38:31.385Z,4.63
2023-08-21T16:40:57.995Z,5.30
2023-08-21T16:43:24.623Z,5.65
2023-08-21T16:45:51.299Z,5.30
2023-08-21T16:48:18.230Z,4.10
2023-08-21T16:50:44.793Z,5.43
2023-08-21T16:53:22.997Z,4.25
2023-08-21T16:55:50.848Z,4.93
2023-08-21T16:58:17.679Z,5.90
2023-08-21T17:00:44.749Z,5.78
2023-08-21T17:03:11.370Z,4.38
2023-08-21T17:05:38.185Z,5.20
2023-08-21T17:08:05.020Z,4.63
2023-08-21T17:10:33.802Z,6.20
2023-08-21T17:13:01.311Z,6.30
2023-08-21T17:15:28.014Z,5.95
2023-08-21T17:17:56.509Z,5.40
2023-08-21T17:20:28.203Z,5.32
2023-08-21T17:22:56.062Z,4.45
2023-08-21T17:25:23.251Z,6.05
2023-08-21T17:27:49.877Z,4.85
2023-08-21T17:30:17.007Z,5.20
2023-08-21T17:32:44.459Z,4.80
2023-08-21T17:35:11.939Z,8.18
2023-08-21T17:37:38.913Z,5.63
2023-08-21T17:40:09.032Z,5.13
2023-08-21T17:42:35.876Z,7.17
2023-08-21T17:45:02.823Z,6.30
2023-08-21T17:47:29.688Z,5.68
2023-08-21T17:49:56.457Z,5.22
2023-08-21T17:52:23.157Z,5.10
2023-08-21T17:54:49.947Z,6.43
2023-08-21T17:57:16.818Z,5.47
2023-08-21T17:59:43.724Z,5.10
2023-08-21T18:02:15.687Z,6.13
2023-08-21T18:04:53.583Z,5.40
2023-08-21T18:07:21.279Z,6.18
2023-08-21T18:09:47.933Z,5.38
2023-08-21T18:12:14.812Z,5.13
2023-08-21T18:14:41.447Z,6.88
2023-08-21T18:17:15.053Z,5.40
2023-08-21T18:19:47.400Z,15.90
2023-08-21T18:22:15.281Z,7.40
2023-08-21T18:24:42.026Z,7.68
2023-08-21T18:27:10.410Z,5.93
2023-08-21T18:29:41.546Z,6.15
2023-08-21T18:32:09.623Z,6.18
2023-08-21T18:34:36.359Z,5.70
2023-08-21T18:37:03.385Z,7.00
2023-08-21T18:39:30.209Z,10.38
2023-08-21T18:41:56.789Z,32.88
2023-08-21T18:44:26.436Z,18.23
2023-08-21T18:46:53.350Z,29.52
2023-08-21T18:49:20.011Z,33.75
2023-08-21T18:51:46.804Z,23.00
2023-08-21T18:54:13.363Z,14.10
2023-08-21T18:56:40.117Z,15.77
2023-08-21T18:59:06.700Z,14.73
2023-08-21T19:01:33.403Z,12.43
2023-08-21T19:04:00.430Z,9.50
2023-08-21T19:06:27.300Z,6.72
2023-08-21T19:08:54.066Z,7.20
2023-08-21T19:11:20.712Z,7.05
2023-08-21T19:13:47.346Z,9.35
2023-08-21T19:16:14.313Z,6.82
2023-08-21T19:18:40.890Z,6.10
2023-08-21T19:21:07.459Z,10.68
2023-08-21T19:23:34.626Z,7.15
2023-08-21T19:26:01.253Z,9.73
2023-08-21T19:28:28.001Z,6.25
2023-08-21T19:30:54.671Z,8.02
2023-08-21T19:33:25.357Z,6.70
2023-08-21T19:35:52.279Z,7.10
2023-08-21T19:38:19.640Z,6.80
2023-08-21T19:40:48.621Z,7.18
2023-08-21T19:43:18.331Z,9.27
2023-08-21T19:45:54.289Z,6.60
2023-08-21T19:48:20.886Z,6.60
2023-08-21T19:50:47.460Z,11.15
2023-08-21T19:53:14.024Z,7.88
2023-08-21T19:55:40.614Z,13.25
2023-08-21T19:58:07.367Z,8.73
2023-08-21T20:00:33.923Z,6.60
2023-08-21T20:03:01.251Z,6.88
2023-08-21T20:05:27.910Z,7.30
2023-08-21T20:07:54.536Z,12.98
2023-08-21T20:10:21.136Z,104.35
2023-08-21T20:12:47.731Z,94.82
2023-08-21T20:15:14.568Z,33.67
2023-08-21T20:17:41.987Z,13.52
2023-08-21T20:20:15.926Z,9.88
2023-08-21T20:22:43.297Z,11.75
2023-08-21T20:25:10.102Z,7.75
2023-08-21T20:27:37.560Z,6.85
2023-08-21T20:30:05.467Z,9.82
2023-08-21T20:32:32.268Z,16.40
2023-08-21T20:34:59.047Z,12.98
2023-08-21T20:37:25.746Z,8.13
2023-08-21T20:39:52.342Z,8.23
2023-08-21T20:42:19.043Z,7.22
2023-08-21T20:44:47.453Z,8.75
2023-08-21T20:47:14.259Z,8.38
2023-08-21T20:49:42.015Z,12.88
2023-08-21T20:52:08.750Z,7.43
2023-08-21T20:54:35.374Z,10.00
2023-08-21T20:57:02.006Z,9.93
2023-08-21T20:59:28.848Z,7.65
2023-08-21T21:01:56.114Z,7.63
2023-08-21T21:04:23.107Z,36.88
2023-08-21T21:06:50.297Z,34.60
2023-08-21T21:09:17.448Z,19.70
2023-08-21T21:11:44.482Z,35.78
2023-08-21T21:14:11.219Z,32.75
2023-08-21T21:16:41.041Z,101.15
2023-08-21T21:19:08.187Z,70.87
2023-08-21T21:21:34.815Z,21.67
2023-08-21T21:24:01.852Z,12.00
2023-08-21T21:26:28.721Z,13.13
2023-08-21T21:28:55.339Z,5.65
2023-08-21T21:31:22.219Z,7.85
2023-08-21T21:33:53.882Z,79.82
2023-08-21T21:36:21.086Z,65.00
2023-08-21T21:38:47.929Z,96.70
2023-08-21T21:41:14.554Z,17.33
2023-08-21T21:43:41.504Z,8.63
2023-08-21T21:46:10.038Z,11.15
2023-08-21T21:48:37.040Z,18.77
2023-08-21T21:51:03.597Z,12.88
2023-08-21T21:53:30.340Z,44.20
2023-08-21T21:55:57.009Z,142.05
2023-08-21T21:58:25.215Z,81.07
2023-08-21T22:00:52.057Z,122.18
2023-08-21T22:03:18.937Z,45.95
2023-08-21T22:05:45.980Z,27.00
2023-08-21T22:08:12.984Z,15.60
2023-08-21T22:10:39.929Z,14.30
2023-08-21T22:13:07.584Z,13.30
2023-08-21T22:15:35.647Z,23.80
2023-08-21T22:18:02.943Z,43.63
2023-08-21T22:20:30.666Z,30.35
2023-08-21T22:22:57.301Z,31.90
2023-08-21T22:25:24.258Z,36.97
2023-08-21T22:27:50.894Z,51.05
2023-08-21T22:30:17.867Z,47.53
2023-08-21T22:32:45.116Z,39.30
2023-08-21T22:35:11.788Z,30.88
2023-08-21T22:37:38.705Z,38.47
2023-08-21T22:40:06.483Z,50.53
2023-08-21T22:42:34.170Z,62.00
2023-08-21T22:45:01.405Z,58.67
2023-08-21T22:47:28.232Z,17.35
2023-08-21T22:49:54.889Z,32.78
2023-08-21T22:52:22.235Z,23.92
2023-08-21T22:54:48.848Z,43.78
2023-08-21T22:57:15.596Z,68.38
2023-08-21T22:59:42.164Z,85.70
2023-08-21T23:02:08.760Z,36.80
2023-08-21T23:04:35.359Z,14.98
2023-08-21T23:07:02.029Z,10.20
2023-08-21T23:09:28.613Z,8.05
2023-08-21T23:11:55.146Z,8.20
2023-08-21T23:14:21.909Z,8.98
2023-08-21T23:16:48.490Z,8.77
2023-08-21T23:19:18.091Z,10.68
2023-08-21T23:21:45.447Z,22.48
2023-08-21T23:24:12.050Z,23.77
2023-08-21T23:26:38.641Z,48.75
2023-08-21T23:29:05.587Z,48.53
2023-08-21T23:31:32.857Z,29.55
2023-08-21T23:33:59.604Z,15.85
2023-08-21T23:36:26.263Z,16.42
2023-08-21T23:38:53.435Z,10.13
2023-08-21T23:41:20.719Z,8.35
2023-08-21T23:43:48.351Z,9.35
2023-08-21T23:46:15.184Z,7.68
2023-08-21T23:48:41.890Z,7.30
2023-08-21T23:51:11.621Z,13.88
2023-08-21T23:53:38.576Z,94.35
2023-08-21T23:56:06.154Z,84.30
2023-08-21T23:58:32.786Z,152.40
